sensor_id;sensor_type;location;lat;lon;timestamp;P1;durP1;ratioP1;P2;durP2;ratioP2
2406;SDS011;37709;53.480;9.688;2023-08-07T00:02:24;3.27;;;2.30;;
2406;SDS011;37709;53.480;9.688;2023-08-07T00:04:51;2.90;;;2.70;;
2406;SDS011;37709;53.480;9.688;2023-08-07T00:07:19;3.40;;;2.57;;
2406;SDS011;37709;53.480;9.688;2023-08-07T00:09:47;3.83;;;2.40;;
2406;SDS011;37709;53.480;9.688;2023-08-07T00:12:16;3.50;;;2.37;;
2406;SDS011;37709;53.480;9.688;2023-08-07T00:14:43;2.20;;;2.00;;
2406;SDS011;37709;53.480;9.688;2023-08-07T00:17:11;2.70;;;2.40;;
2406;SDS011;37709;53.480;9.688;2023-08-07T00:19:39;2.63;;;2.20;;
2406;SDS011;37709;53.480;9.688;2023-08-07T00:22:07;6.13;;;1.80;;
2406;SDS011;37709;53.480;9.688;2023-08-07T00:24:35;2.30;;;2.10;;
2406;SDS011;37709;53.480;9.688;2023-08-07T00:27:02;2.77;;;2.17;;
2406;SDS011;37709;53.480;9.688;2023-08-07T00:29:30;3.60;;;2.17;;
2406;SDS011;37709;53.480;9.688;2023-08-07T00:31:59;2.50;;;2.30;;
2406;SDS011;37709;53.480;9.688;2023-08-07T00:34:27;2.30;;;2.10;;
2406;SDS011;37709;53.480;9.688;2023-08-07T00:36:55;3.27;;;1.90;;
2406;SDS011;37709;53.480;9.688;2023-08-07T00:39:24;3.80;;;2.13;;
2406;SDS011;37709;53.480;9.688;2023-08-07T00:41:51;3.70;;;2.13;;
2406;SDS011;37709;53.480;9.688;2023-08-07T00:44:19;3.60;;;2.60;;
2406;SDS011;37709;53.480;9.688;2023-08-07T00:46:47;2.67;;;2.27;;
2406;SDS011;37709;53.480;9.688;2023-08-07T00:49:14;2.80;;;2.10;;
2406;SDS011;37709;53.480;9.688;2023-08-07T00:51:42;2.97;;;2.70;;
2406;SDS011;37709;53.480;9.688;2023-08-07T00:54:11;2.70;;;2.03;;
2406;SDS011;37709;53.480;9.688;2023-08-07T00:56:39;5.70;;;2.33;;
2406;SDS011;37709;53.480;9.688;2023-08-07T00:59:07;4.00;;;2.53;;
2406;SDS011;37709;53.480;9.688;2023-08-07T01:01:36;4.17;;;2.37;;
2406;SDS011;37709;53.480;9.688;2023-08-07T01:04:05;5.33;;;2.63;;
2406;SDS011;37709;53.480;9.688;2023-08-07T01:06:32;2.70;;;2.07;;
2406;SDS011;37709;53.480;9.688;2023-08-07T01:09:00;3.03;;;2.20;;
2406;SDS011;37709;53.480;9.688;2023-08-07T01:11:32;4.70;;;2.60;;
2406;SDS011;37709;53.480;9.688;2023-08-07T01:14:13;3.83;;;2.23;;
2406;SDS011;37709;53.480;9.688;2023-08-07T01:16:48;6.63;;;2.83;;
2406;SDS011;37709;53.480;9.688;2023-08-07T01:19:26;3.07;;;2.80;;
2406;SDS011;37709;53.480;9.688;2023-08-07T01:22:03;2.70;;;2.10;;
2406;SDS011;37709;53.480;9.688;2023-08-07T01:24:34;2.50;;;2.30;;
2406;SDS011;37709;53.480;9.688;2023-08-07T01:27:05;5.37;;;2.27;;
2406;SDS011;37709;53.480;9.688;2023-08-07T01:29:43;4.60;;;1.97;;
2406;SDS011;37709;53.480;9.688;2023-08-07T01:32:17;3.37;;;2.43;;
2406;SDS011;37709;53.480;9.688;2023-08-07T01:34:46;2.80;;;2.10;;
2406;SDS011;37709;53.480;9.688;2023-08-07T01:37:15;3.93;;;1.87;;
2406;SDS011;37709;53.480;9.688;2023-08-07T01:39:43;2.37;;;1.70;;
2406;SDS011;37709;53.480;9.688;2023-08-07T01:42:13;4.60;;;2.63;;
2406;SDS011;37709;53.480;9.688;2023-08-07T01:44:42;5.20;;;1.83;;
2406;SDS011;37709;53.480;9.688;2023-08-07T01:47:09;3.10;;;2.00;;
2406;SDS011;37709;53.480;9.688;2023-08-07T01:49:37;3.83;;;1.80;;
2406;SDS011;37709;53.480;9.688;2023-08-07T01:52:07;5.90;;;2.00;;
2406;SDS011;37709;53.480;9.688;2023-08-07T01:54:35;4.50;;;2.20;;
2406;SDS011;37709;53.480;9.688;2023-08-07T01:57:03;2.40;;;1.53;;
2406;SDS011;37709;53.480;9.688;2023-08-07T01:59:31;2.70;;;1.80;;
2406;SDS011;37709;53.480;9.688;2023-08-07T02:01:59;3.37;;;2.20;;
2406;SDS011;37709;53.480;9.688;2023-08-07T02:04:26;2.47;;;1.80;;
2406;SDS011;37709;53.480;9.688;2023-08-07T02:06:54;2.37;;;1.40;;
2406;SDS011;37709;53.480;9.688;2023-08-07T02:09:23;2.20;;;1.63;;
2406;SDS011;37709;53.480;9.688;2023-08-07T02:11:51;3.03;;;1.60;;
2406;SDS011;37709;53.480;9.688;2023-08-07T02:14:19;2.80;;;1.60;;
2406;SDS011;37709;53.480;9.688;2023-08-07T02:16:47;2.63;;;1.57;;
2406;SDS011;37709;53.480;9.688;2023-08-07T02:19:15;2.90;;;1.80;;
2406;SDS011;37709;53.480;9.688;2023-08-07T02:21:42;3.13;;;1.60;;
2406;SDS011;37709;53.480;9.688;2023-08-07T02:24:10;6.30;;;1.70;;
2406;SDS011;37709;53.480;9.688;2023-08-07T02:26:38;2.47;;;1.67;;
2406;SDS011;37709;53.480;9.688;2023-08-07T02:29:06;3.37;;;2.10;;
2406;SDS011;37709;53.480;9.688;2023-08-07T02:31:36;3.37;;;1.53;;
2406;SDS011;37709;53.480;9.688;2023-08-07T02:34:03;2.07;;;1.40;;
2406;SDS011;37709;53.480;9.688;2023-08-07T02:36:31;2.40;;;1.80;;
2406;SDS011;37709;53.480;9.688;2023-08-07T02:39:00;2.60;;;1.43;;
2406;SDS011;37709;53.480;9.688;2023-08-07T02:41:27;3.87;;;1.83;;
2406;SDS011;37709;53.480;9.688;2023-08-07T02:43:55;3.70;;;1.67;;
2406;SDS011;37709;53.480;9.688;2023-08-07T02:46:23;1.97;;;1.40;;
2406;SDS011;37709;53.480;9.688;2023-08-07T02:48:50;3.00;;;1.33;;
2406;SDS011;37709;53.480;9.688;2023-08-07T02:51:19;5.83;;;1.50;;
2406;SDS011;37709;53.480;9.688;2023-08-07T02:53:47;1.93;;;1.50;;
2406;SDS011;37709;53.480;9.688;2023-08-07T02:56:15;4.10;;;1.60;;
2406;SDS011;37709;53.480;9.688;2023-08-07T02:58:44;1.67;;;1.10;;
2406;SDS011;37709;53.480;9.688;2023-08-07T03:01:12;2.07;;;1.50;;
2406;SDS011;37709;53.480;9.688;2023-08-07T03:03:40;1.97;;;1.60;;
2406;SDS011;37709;53.480;9.688;2023-08-07T03:06:08;2.93;;;1.20;;
2406;SDS011;37709;53.480;9.688;2023-08-07T03:08:35;1.83;;;1.73;;
2406;SDS011;37709;53.480;9.688;2023-08-07T03:11:04;1.30;;;1.20;;
2406;SDS011;37709;53.480;9.688;2023-08-07T03:13:31;1.70;;;1.50;;
2406;SDS011;37709;53.480;9.688;2023-08-07T03:16:00;2.30;;;1.40;;
2406;SDS011;37709;53.480;9.688;2023-08-07T03:18:28;2.50;;;1.60;;
2406;SDS011;37709;53.480;9.688;2023-08-07T03:20:57;6.37;;;1.50;;
2406;SDS011;37709;53.480;9.688;2023-08-07T03:23:25;2.00;;;1.37;;
2406;SDS011;37709;53.480;9.688;2023-08-07T03:26:04;2.00;;;1.30;;
2406;SDS011;37709;53.480;9.688;2023-08-07T03:28:37;2.37;;;2.17;;
2406;SDS011;37709;53.480;9.688;2023-08-07T03:31:05;2.47;;;1.27;;
2406;SDS011;37709;53.480;9.688;2023-08-07T03:33:36;1.90;;;1.40;;
2406;SDS011;37709;53.480;9.688;2023-08-07T03:36:04;2.70;;;1.40;;
2406;SDS011;37709;53.480;9.688;2023-08-07T03:38:33;2.13;;;1.20;;
2406;SDS011;37709;53.480;9.688;2023-08-07T03:41:01;4.10;;;1.80;;
2406;SDS011;37709;53.480;9.688;2023-08-07T03:43:30;3.90;;;1.77;;
2406;SDS011;37709;53.480;9.688;2023-08-07T03:45:58;3.10;;;1.73;;
2406;SDS011;37709;53.480;9.688;2023-08-07T03:48:30;1.80;;;1.40;;
2406;SDS011;37709;53.480;9.688;2023-08-07T03:51:06;4.27;;;1.67;;
2406;SDS011;37709;53.480;9.688;2023-08-07T03:53:42;4.37;;;1.80;;
2406;SDS011;37709;53.480;9.688;2023-08-07T03:56:10;3.93;;;2.30;;
2406;SDS011;37709;53.480;9.688;2023-08-07T03:58:38;3.30;;;2.17;;
2406;SDS011;37709;53.480;9.688;2023-08-07T04:01:06;5.73;;;2.50;;
2406;SDS011;37709;53.480;9.688;2023-08-07T04:03:34;3.23;;;2.03;;
2406;SDS011;37709;53.480;9.688;2023-08-07T04:06:03;3.97;;;2.60;;
2406;SDS011;37709;53.480;9.688;2023-08-07T04:08:32;6.83;;;2.00;;
2406;SDS011;37709;53.480;9.688;2023-08-07T04:11:01;9.43;;;2.60;;
2406;SDS011;37709;53.480;9.688;2023-08-07T04:13:30;3.60;;;2.20;;
2406;SDS011;37709;53.480;9.688;2023-08-07T04:15:58;4.20;;;2.47;;
2406;SDS011;37709;53.480;9.688;2023-08-07T04:18:29;2.10;;;1.77;;
2406;SDS011;37709;53.480;9.688;2023-08-07T04:20:57;3.83;;;2.10;;
2406;SDS011;37709;53.480;9.688;2023-08-07T04:23:25;5.20;;;2.07;;
2406;SDS011;37709;53.480;9.688;2023-08-07T04:25:52;3.30;;;2.03;;
2406;SDS011;37709;53.480;9.688;2023-08-07T04:28:20;3.40;;;2.37;;
2406;SDS011;37709;53.480;9.688;2023-08-07T04:30:49;2.80;;;1.83;;
2406;SDS011;37709;53.480;9.688;2023-08-07T04:33:18;2.27;;;1.93;;
2406;SDS011;37709;53.480;9.688;2023-08-07T04:35:46;3.83;;;2.40;;
2406;SDS011;37709;53.480;9.688;2023-08-07T04:38:14;3.07;;;2.00;;
2406;SDS011;37709;53.480;9.688;2023-08-07T04:40:45;4.20;;;2.30;;
2406;SDS011;37709;53.480;9.688;2023-08-07T04:43:13;6.87;;;2.30;;
2406;SDS011;37709;53.480;9.688;2023-08-07T04:45:42;5.00;;;2.20;;
2406;SDS011;37709;53.480;9.688;2023-08-07T04:48:13;5.50;;;2.47;;
2406;SDS011;37709;53.480;9.688;2023-08-07T04:50:41;4.57;;;2.30;;
2406;SDS011;37709;53.480;9.688;2023-08-07T04:53:08;2.80;;;2.50;;
2406;SDS011;37709;53.480;9.688;2023-08-07T04:55:36;3.73;;;2.47;;
2406;SDS011;37709;53.480;9.688;2023-08-07T04:58:04;5.47;;;2.13;;
2406;SDS011;37709;53.480;9.688;2023-08-07T05:00:32;4.27;;;2.33;;
2406;SDS011;37709;53.480;9.688;2023-08-07T05:03:00;4.70;;;2.50;;
2406;SDS011;37709;53.480;9.688;2023-08-07T05:05:28;4.37;;;2.47;;
2406;SDS011;37709;53.480;9.688;2023-08-07T05:07:57;7.90;;;2.40;;
2406;SDS011;37709;53.480;9.688;2023-08-07T05:10:26;7.00;;;2.53;;
2406;SDS011;37709;53.480;9.688;2023-08-07T05:12:54;4.10;;;2.70;;
2406;SDS011;37709;53.480;9.688;2023-08-07T05:15:22;7.20;;;2.43;;
2406;SDS011;37709;53.480;9.688;2023-08-07T05:17:51;3.40;;;2.00;;
2406;SDS011;37709;53.480;9.688;2023-08-07T05:20:19;8.00;;;2.60;;
2406;SDS011;37709;53.480;9.688;2023-08-07T05:22:48;4.30;;;2.30;;
2406;SDS011;37709;53.480;9.688;2023-08-07T05:25:16;5.70;;;2.40;;
2406;SDS011;37709;53.480;9.688;2023-08-07T05:27:45;7.97;;;2.50;;
2406;SDS011;37709;53.480;9.688;2023-08-07T05:30:13;4.60;;;2.63;;
2406;SDS011;37709;53.480;9.688;2023-08-07T05:32:41;4.50;;;3.30;;
2406;SDS011;37709;53.480;9.688;2023-08-07T05:35:09;9.13;;;3.07;;
2406;SDS011;37709;53.480;9.688;2023-08-07T05:37:37;5.37;;;2.53;;
2406;SDS011;37709;53.480;9.688;2023-08-07T05:40:06;8.70;;;3.17;;
2406;SDS011;37709;53.480;9.688;2023-08-07T05:42:34;5.10;;;2.97;;
2406;SDS011;37709;53.480;9.688;2023-08-07T05:45:02;6.87;;;2.70;;
2406;SDS011;37709;53.480;9.688;2023-08-07T05:47:32;6.00;;;3.00;;
2406;SDS011;37709;53.480;9.688;2023-08-07T05:50:00;3.83;;;2.73;;
2406;SDS011;37709;53.480;9.688;2023-08-07T05:52:31;9.90;;;3.07;;
2406;SDS011;37709;53.480;9.688;2023-08-07T05:54:58;5.00;;;2.97;;
2406;SDS011;37709;53.480;9.688;2023-08-07T05:57:26;4.07;;;2.43;;
2406;SDS011;37709;53.480;9.688;2023-08-07T05:59:54;7.93;;;3.20;;
2406;SDS011;37709;53.480;9.688;2023-08-07T06:02:22;7.20;;;3.73;;
2406;SDS011;37709;53.480;9.688;2023-08-07T06:04:49;9.50;;;2.80;;
2406;SDS011;37709;53.480;9.688;2023-08-07T06:07:17;7.13;;;2.80;;
2406;SDS011;37709;53.480;9.688;2023-08-07T06:09:45;4.50;;;2.87;;
2406;SDS011;37709;53.480;9.688;2023-08-07T06:12:12;4.87;;;2.80;;
2406;SDS011;37709;53.480;9.688;2023-08-07T06:14:40;7.10;;;2.70;;
2406;SDS011;37709;53.480;9.688;2023-08-07T06:17:08;3.53;;;2.43;;
2406;SDS011;37709;53.480;9.688;2023-08-07T06:19:36;7.10;;;2.80;;
2406;SDS011;37709;53.480;9.688;2023-08-07T06:22:04;6.60;;;2.80;;
2406;SDS011;37709;53.480;9.688;2023-08-07T06:24:31;5.93;;;2.20;;
2406;SDS011;37709;53.480;9.688;2023-08-07T06:26:59;4.13;;;2.30;;
2406;SDS011;37709;53.480;9.688;2023-08-07T06:29:27;5.90;;;2.50;;
2406;SDS011;37709;53.480;9.688;2023-08-07T06:31:54;6.57;;;2.63;;
2406;SDS011;37709;53.480;9.688;2023-08-07T06:34:22;5.57;;;2.40;;
2406;SDS011;37709;53.480;9.688;2023-08-07T06:36:50;5.43;;;2.00;;
2406;SDS011;37709;53.480;9.688;2023-08-07T06:39:18;3.47;;;2.10;;
2406;SDS011;37709;53.480;9.688;2023-08-07T06:41:46;6.87;;;3.20;;
2406;SDS011;37709;53.480;9.688;2023-08-07T06:44:17;7.83;;;2.60;;
2406;SDS011;37709;53.480;9.688;2023-08-07T06:46:44;6.47;;;2.33;;
2406;SDS011;37709;53.480;9.688;2023-08-07T06:49:12;8.77;;;2.83;;
2406;SDS011;37709;53.480;9.688;2023-08-07T06:51:40;5.83;;;2.10;;
2406;SDS011;37709;53.480;9.688;2023-08-07T06:54:07;6.50;;;2.87;;
2406;SDS011;37709;53.480;9.688;2023-08-07T06:56:35;8.77;;;3.07;;
2406;SDS011;37709;53.480;9.688;2023-08-07T06:59:07;6.37;;;2.70;;
2406;SDS011;37709;53.480;9.688;2023-08-07T07:01:35;7.77;;;3.20;;
2406;SDS011;37709;53.480;9.688;2023-08-07T07:04:03;13.37;;;3.20;;
2406;SDS011;37709;53.480;9.688;2023-08-07T07:06:32;9.80;;;3.10;;
2406;SDS011;37709;53.480;9.688;2023-08-07T07:09:00;8.00;;;2.93;;
2406;SDS011;37709;53.480;9.688;2023-08-07T07:11:28;7.13;;;3.00;;
2406;SDS011;37709;53.480;9.688;2023-08-07T07:13:57;9.47;;;3.67;;
2406;SDS011;37709;53.480;9.688;2023-08-07T07:16:24;9.80;;;3.10;;
2406;SDS011;37709;53.480;9.688;2023-08-07T07:18:55;10.40;;;3.50;;
2406;SDS011;37709;53.480;9.688;2023-08-07T07:21:25;8.93;;;2.90;;
2406;SDS011;37709;53.480;9.688;2023-08-07T07:23:52;11.60;;;3.37;;
2406;SDS011;37709;53.480;9.688;2023-08-07T07:26:21;6.43;;;2.53;;
2406;SDS011;37709;53.480;9.688;2023-08-07T07:28:48;7.13;;;2.90;;
2406;SDS011;37709;53.480;9.688;2023-08-07T07:31:18;7.97;;;3.20;;
2406;SDS011;37709;53.480;9.688;2023-08-07T07:33:45;8.67;;;2.80;;
2406;SDS011;37709;53.480;9.688;2023-08-07T07:36:17;7.27;;;2.83;;
2406;SDS011;37709;53.480;9.688;2023-08-07T07:38:45;5.90;;;2.80;;
2406;SDS011;37709;53.480;9.688;2023-08-07T07:41:14;4.27;;;2.20;;
2406;SDS011;37709;53.480;9.688;2023-08-07T07:43:43;6.57;;;3.10;;
2406;SDS011;37709;53.480;9.688;2023-08-07T07:46:10;5.77;;;2.63;;
2406;SDS011;37709;53.480;9.688;2023-08-07T07:48:37;8.70;;;3.17;;
2406;SDS011;37709;53.480;9.688;2023-08-07T07:51:05;8.80;;;3.17;;
2406;SDS011;37709;53.480;9.688;2023-08-07T07:53:33;7.23;;;2.60;;
2406;SDS011;37709;53.480;9.688;2023-08-07T07:56:00;6.63;;;2.70;;
2406;SDS011;37709;53.480;9.688;2023-08-07T07:58:28;10.03;;;3.40;;
2406;SDS011;37709;53.480;9.688;2023-08-07T08:00:55;8.80;;;2.50;;
2406;SDS011;37709;53.480;9.688;2023-08-07T08:03:23;5.83;;;2.97;;
2406;SDS011;37709;53.480;9.688;2023-08-07T08:05:51;5.90;;;3.07;;
2406;SDS011;37709;53.480;9.688;2023-08-07T08:08:20;8.37;;;2.80;;
2406;SDS011;37709;53.480;9.688;2023-08-07T08:10:48;7.10;;;2.80;;
2406;SDS011;37709;53.480;9.688;2023-08-07T08:13:15;8.50;;;3.87;;
2406;SDS011;37709;53.480;9.688;2023-08-07T08:15:44;7.27;;;3.53;;
2406;SDS011;37709;53.480;9.688;2023-08-07T08:18:12;8.30;;;3.20;;
2406;SDS011;37709;53.480;9.688;2023-08-07T08:20:39;10.00;;;2.97;;
2406;SDS011;37709;53.480;9.688;2023-08-07T08:23:07;10.60;;;3.50;;
2406;SDS011;37709;53.480;9.688;2023-08-07T08:25:35;8.90;;;3.10;;
2406;SDS011;37709;53.480;9.688;2023-08-07T08:28:03;7.30;;;3.30;;
2406;SDS011;37709;53.480;9.688;2023-08-07T08:30:30;6.90;;;2.70;;
2406;SDS011;37709;53.480;9.688;2023-08-07T08:32:57;7.83;;;3.50;;
2406;SDS011;37709;53.480;9.688;2023-08-07T08:35:25;8.10;;;3.20;;
2406;SDS011;37709;53.480;9.688;2023-08-07T08:37:53;5.40;;;2.87;;
2406;SDS011;37709;53.480;9.688;2023-08-07T08:40:20;8.30;;;2.63;;
2406;SDS011;37709;53.480;9.688;2023-08-07T08:42:48;4.67;;;2.20;;
2406;SDS011;37709;53.480;9.688;2023-08-07T08:45:17;5.00;;;2.43;;
2406;SDS011;37709;53.480;9.688;2023-08-07T08:47:47;6.27;;;2.40;;
2406;SDS011;37709;53.480;9.688;2023-08-07T08:50:18;5.80;;;2.27;;
2406;SDS011;37709;53.480;9.688;2023-08-07T08:52:46;5.60;;;2.20;;
2406;SDS011;37709;53.480;9.688;2023-08-07T08:55:14;5.00;;;2.17;;
2406;SDS011;37709;53.480;9.688;2023-08-07T08:57:41;4.20;;;2.50;;
2406;SDS011;37709;53.480;9.688;2023-08-07T09:00:09;5.77;;;2.50;;
2406;SDS011;37709;53.480;9.688;2023-08-07T09:02:49;4.37;;;2.87;;
2406;SDS011;37709;53.480;9.688;2023-08-07T09:05:18;6.80;;;2.50;;
2406;SDS011;37709;53.480;9.688;2023-08-07T09:07:48;7.30;;;2.40;;
2406;SDS011;37709;53.480;9.688;2023-08-07T09:10:18;6.00;;;3.03;;
2406;SDS011;37709;53.480;9.688;2023-08-07T09:12:53;6.80;;;2.07;;
2406;SDS011;37709;53.480;9.688;2023-08-07T09:15:23;8.50;;;3.03;;
2406;SDS011;37709;53.480;9.688;2023-08-07T09:17:52;3.67;;;2.20;;
2406;SDS011;37709;53.480;9.688;2023-08-07T09:20:22;8.20;;;2.83;;
2406;SDS011;37709;53.480;9.688;2023-08-07T09:22:49;7.70;;;2.20;;
2406;SDS011;37709;53.480;9.688;2023-08-07T09:25:27;9.30;;;2.63;;
2406;SDS011;37709;53.480;9.688;2023-08-07T09:27:56;6.37;;;2.50;;
2406;SDS011;37709;53.480;9.688;2023-08-07T09:30:27;8.20;;;2.33;;
2406;SDS011;37709;53.480;9.688;2023-08-07T09:32:59;8.63;;;2.97;;
2406;SDS011;37709;53.480;9.688;2023-08-07T09:35:28;7.17;;;3.00;;
2406;SDS011;37709;53.480;9.688;2023-08-07T09:37:57;9.13;;;3.00;;
2406;SDS011;37709;53.480;9.688;2023-08-07T09:40:24;8.07;;;2.63;;
2406;SDS011;37709;53.480;9.688;2023-08-07T09:42:53;6.37;;;2.80;;
2406;SDS011;37709;53.480;9.688;2023-08-07T09:45:22;8.73;;;2.53;;
2406;SDS011;37709;53.480;9.688;2023-08-07T09:50:26;7.70;;;3.10;;
2406;SDS011;37709;53.480;9.688;2023-08-07T09:52:54;6.90;;;2.53;;
2406;SDS011;37709;53.480;9.688;2023-08-07T09:55:25;6.10;;;3.23;;
2406;SDS011;37709;53.480;9.688;2023-08-07T09:57:53;8.30;;;2.80;;
2406;SDS011;37709;53.480;9.688;2023-08-07T10:00:21;6.40;;;3.03;;
2406;SDS011;37709;53.480;9.688;2023-08-07T10:02:49;4.10;;;2.13;;
2406;SDS011;37709;53.480;9.688;2023-08-07T10:05:18;6.33;;;2.70;;
2406;SDS011;37709;53.480;9.688;2023-08-07T10:07:47;9.50;;;2.77;;
2406;SDS011;37709;53.480;9.688;2023-08-07T10:10:15;7.73;;;3.00;;
2406;SDS011;37709;53.480;9.688;2023-08-07T10:12:44;8.00;;;2.20;;
2406;SDS011;37709;53.480;9.688;2023-08-07T10:15:15;9.63;;;2.97;;
2406;SDS011;37709;53.480;9.688;2023-08-07T10:17:42;7.20;;;2.07;;
2406;SDS011;37709;53.480;9.688;2023-08-07T10:20:11;6.80;;;2.60;;
2406;SDS011;37709;53.480;9.688;2023-08-07T10:22:39;7.00;;;2.53;;
2406;SDS011;37709;53.480;9.688;2023-08-07T10:25:08;4.70;;;1.70;;
2406;SDS011;37709;53.480;9.688;2023-08-07T10:27:37;3.70;;;2.20;;
2406;SDS011;37709;53.480;9.688;2023-08-07T10:30:06;6.20;;;1.90;;
2406;SDS011;37709;53.480;9.688;2023-08-07T10:32:39;7.50;;;2.53;;
2406;SDS011;37709;53.480;9.688;2023-08-07T10:35:07;5.47;;;1.90;;
2406;SDS011;37709;53.480;9.688;2023-08-07T10:37:39;5.10;;;2.37;;
2406;SDS011;37709;53.480;9.688;2023-08-07T10:40:26;3.63;;;1.93;;
2406;SDS011;37709;53.480;9.688;2023-08-07T10:45:23;11.50;;;2.77;;
2406;SDS011;37709;53.480;9.688;2023-08-07T10:50:32;8.60;;;2.70;;
2406;SDS011;37709;53.480;9.688;2023-08-07T10:53:03;7.17;;;2.80;;
2406;SDS011;37709;53.480;9.688;2023-08-07T10:55:44;7.43;;;2.70;;
2406;SDS011;37709;53.480;9.688;2023-08-07T10:58:31;4.80;;;2.00;;
2406;SDS011;37709;53.480;9.688;2023-08-07T11:01:19;5.03;;;2.40;;
2406;SDS011;37709;53.480;9.688;2023-08-07T11:03:56;4.43;;;2.10;;
2406;SDS011;37709;53.480;9.688;2023-08-07T11:06:25;7.40;;;1.73;;
2406;SDS011;37709;53.480;9.688;2023-08-07T11:08:53;3.73;;;1.60;;
2406;SDS011;37709;53.480;9.688;2023-08-07T11:11:21;6.47;;;3.40;;
2406;SDS011;37709;53.480;9.688;2023-08-07T11:13:48;4.47;;;2.10;;
2406;SDS011;37709;53.480;9.688;2023-08-07T11:16:16;5.17;;;2.00;;
2406;SDS011;37709;53.480;9.688;2023-08-07T11:18:44;4.80;;;1.80;;
2406;SDS011;37709;53.480;9.688;2023-08-07T11:21:12;6.93;;;1.90;;
2406;SDS011;37709;53.480;9.688;2023-08-07T11:23:40;6.00;;;2.03;;
2406;SDS011;37709;53.480;9.688;2023-08-07T11:26:09;6.10;;;1.92;;
2406;SDS011;37709;53.480;9.688;2023-08-07T11:28:36;4.73;;;2.17;;
2406;SDS011;37709;53.480;9.688;2023-08-07T11:31:04;5.83;;;2.10;;
2406;SDS011;37709;53.480;9.688;2023-08-07T11:33:32;5.87;;;1.83;;
2406;SDS011;37709;53.480;9.688;2023-08-07T11:35:59;6.50;;;2.03;;
2406;SDS011;37709;53.480;9.688;2023-08-07T11:38:30;4.40;;;2.00;;
2406;SDS011;37709;53.480;9.688;2023-08-07T11:41:01;6.27;;;1.90;;
2406;SDS011;37709;53.480;9.688;2023-08-07T11:43:29;4.80;;;2.13;;
2406;SDS011;37709;53.480;9.688;2023-08-07T11:45:58;10.70;;;3.03;;
2406;SDS011;37709;53.480;9.688;2023-08-07T11:48:28;7.30;;;2.30;;
2406;SDS011;37709;53.480;9.688;2023-08-07T11:50:56;8.60;;;2.23;;
2406;SDS011;37709;53.480;9.688;2023-08-07T11:53:30;9.13;;;2.20;;
2406;SDS011;37709;53.480;9.688;2023-08-07T11:55:59;5.73;;;2.30;;
2406;SDS011;37709;53.480;9.688;2023-08-07T11:58:39;5.23;;;2.27;;
2406;SDS011;37709;53.480;9.688;2023-08-07T12:01:09;5.63;;;2.10;;
2406;SDS011;37709;53.480;9.688;2023-08-07T12:03:41;5.67;;;2.40;;
2406;SDS011;37709;53.480;9.688;2023-08-07T12:06:10;7.93;;;2.40;;
2406;SDS011;37709;53.480;9.688;2023-08-07T12:08:38;6.20;;;2.50;;
2406;SDS011;37709;53.480;9.688;2023-08-07T12:11:08;10.17;;;3.13;;
2406;SDS011;37709;53.480;9.688;2023-08-07T12:13:40;7.23;;;2.57;;
2406;SDS011;37709;53.480;9.688;2023-08-07T12:16:09;7.80;;;3.00;;
2406;SDS011;37709;53.480;9.688;2023-08-07T12:18:43;7.00;;;2.27;;
2406;SDS011;37709;53.480;9.688;2023-08-07T12:21:20;10.33;;;3.40;;
2406;SDS011;37709;53.480;9.688;2023-08-07T12:23:56;7.83;;;2.37;;
2406;SDS011;37709;53.480;9.688;2023-08-07T12:26:24;9.20;;;3.10;;
2406;SDS011;37709;53.480;9.688;2023-08-07T12:28:52;7.63;;;2.30;;
2406;SDS011;37709;53.480;9.688;2023-08-07T12:31:19;6.93;;;3.03;;
2406;SDS011;37709;53.480;9.688;2023-08-07T12:33:47;4.77;;;2.30;;
2406;SDS011;37709;53.480;9.688;2023-08-07T12:36:14;6.00;;;2.60;;
2406;SDS011;37709;53.480;9.688;2023-08-07T12:38:45;5.07;;;2.10;;
2406;SDS011;37709;53.480;9.688;2023-08-07T12:41:13;4.13;;;2.00;;
2406;SDS011;37709;53.480;9.688;2023-08-07T12:43:44;6.27;;;2.37;;
2406;SDS011;37709;53.480;9.688;2023-08-07T12:46:12;8.27;;;2.67;;
2406;SDS011;37709;53.480;9.688;2023-08-07T12:48:43;6.53;;;2.10;;
2406;SDS011;37709;53.480;9.688;2023-08-07T12:51:10;4.70;;;2.50;;
2406;SDS011;37709;53.480;9.688;2023-08-07T12:53:38;5.87;;;2.87;;
2406;SDS011;37709;53.480;9.688;2023-08-07T12:56:06;6.50;;;2.50;;
2406;SDS011;37709;53.480;9.688;2023-08-07T12:58:33;7.10;;;2.87;;
2406;SDS011;37709;53.480;9.688;2023-08-07T13:01:01;8.50;;;2.47;;
2406;SDS011;37709;53.480;9.688;2023-08-07T13:03:28;4.23;;;1.87;;
2406;SDS011;37709;53.480;9.688;2023-08-07T13:05:56;5.10;;;3.07;;
2406;SDS011;37709;53.480;9.688;2023-08-07T13:08:24;5.70;;;2.00;;
2406;SDS011;37709;53.480;9.688;2023-08-07T13:10:51;6.97;;;2.80;;
2406;SDS011;37709;53.480;9.688;2023-08-07T13:13:20;7.60;;;2.20;;
2406;SDS011;37709;53.480;9.688;2023-08-07T13:15:48;10.37;;;2.63;;
2406;SDS011;37709;53.480;9.688;2023-08-07T13:18:15;4.40;;;2.10;;
2406;SDS011;37709;53.480;9.688;2023-08-07T13:20:44;5.50;;;2.10;;
2406;SDS011;37709;53.480;9.688;2023-08-07T13:23:11;4.00;;;2.20;;
2406;SDS011;37709;53.480;9.688;2023-08-07T13:25:41;5.17;;;2.10;;
2406;SDS011;37709;53.480;9.688;2023-08-07T13:28:08;3.87;;;2.20;;
2406;SDS011;37709;53.480;9.688;2023-08-07T13:30:36;5.37;;;2.13;;
2406;SDS011;37709;53.480;9.688;2023-08-07T13:33:04;7.17;;;2.67;;
2406;SDS011;37709;53.480;9.688;2023-08-07T13:35:31;5.13;;;2.33;;
2406;SDS011;37709;53.480;9.688;2023-08-07T13:38:01;8.03;;;2.60;;
2406;SDS011;37709;53.480;9.688;2023-08-07T13:40:32;9.37;;;2.63;;
2406;SDS011;37709;53.480;9.688;2023-08-07T13:43:00;5.70;;;2.60;;
2406;SDS011;37709;53.480;9.688;2023-08-07T13:45:31;7.00;;;3.10;;
2406;SDS011;37709;53.480;9.688;2023-08-07T13:47:58;6.63;;;2.50;;
2406;SDS011;37709;53.480;9.688;2023-08-07T13:50:25;5.50;;;2.70;;
2406;SDS011;37709;53.480;9.688;2023-08-07T13:52:54;8.00;;;3.00;;
2406;SDS011;37709;53.480;9.688;2023-08-07T13:55:39;7.57;;;2.53;;
2406;SDS011;37709;53.480;9.688;2023-08-07T13:58:07;5.43;;;2.60;;
2406;SDS011;37709;53.480;9.688;2023-08-07T14:00:36;4.77;;;2.43;;
2406;SDS011;37709;53.480;9.688;2023-08-07T14:03:05;4.57;;;2.20;;
2406;SDS011;37709;53.480;9.688;2023-08-07T14:05:35;4.10;;;2.23;;
2406;SDS011;37709;53.480;9.688;2023-08-07T14:08:02;7.27;;;2.33;;
2406;SDS011;37709;53.480;9.688;2023-08-07T14:10:31;2.63;;;2.03;;
2406;SDS011;37709;53.480;9.688;2023-08-07T14:12:59;3.90;;;2.77;;
2406;SDS011;37709;53.480;9.688;2023-08-07T14:15:28;7.50;;;2.77;;
2406;SDS011;37709;53.480;9.688;2023-08-07T14:17:56;6.23;;;2.43;;
2406;SDS011;37709;53.480;9.688;2023-08-07T14:20:25;4.50;;;2.00;;
2406;SDS011;37709;53.480;9.688;2023-08-07T14:22:53;9.00;;;2.50;;
2406;SDS011;37709;53.480;9.688;2023-08-07T14:25:29;7.97;;;2.90;;
2406;SDS011;37709;53.480;9.688;2023-08-07T14:27:56;5.40;;;2.77;;
2406;SDS011;37709;53.480;9.688;2023-08-07T14:30:24;5.17;;;2.27;;
2406;SDS011;37709;53.480;9.688;2023-08-07T14:32:51;6.43;;;2.60;;
2406;SDS011;37709;53.480;9.688;2023-08-07T14:35:18;6.73;;;2.30;;
2406;SDS011;37709;53.480;9.688;2023-08-07T14:37:46;7.00;;;2.80;;
2406;SDS011;37709;53.480;9.688;2023-08-07T14:40:15;5.63;;;2.53;;
2406;SDS011;37709;53.480;9.688;2023-08-07T14:42:42;4.63;;;1.97;;
2406;SDS011;37709;53.480;9.688;2023-08-07T14:45:10;8.03;;;2.70;;
2406;SDS011;37709;53.480;9.688;2023-08-07T14:47:37;3.80;;;1.83;;
2406;SDS011;37709;53.480;9.688;2023-08-07T14:50:05;4.60;;;1.70;;
2406;SDS011;37709;53.480;9.688;2023-08-07T14:52:32;8.40;;;2.73;;
2406;SDS011;37709;53.480;9.688;2023-08-07T14:55:00;4.43;;;2.37;;
2406;SDS011;37709;53.480;9.688;2023-08-07T14:57:28;6.33;;;2.00;;
2406;SDS011;37709;53.480;9.688;2023-08-07T14:59:55;5.10;;;2.13;;
2406;SDS011;37709;53.480;9.688;2023-08-07T15:02:22;5.53;;;2.27;;
2406;SDS011;37709;53.480;9.688;2023-08-07T15:04:50;3.30;;;2.10;;
2406;SDS011;37709;53.480;9.688;2023-08-07T15:07:18;4.47;;;2.43;;
2406;SDS011;37709;53.480;9.688;2023-08-07T15:09:45;4.00;;;1.80;;
2406;SDS011;37709;53.480;9.688;2023-08-07T15:12:17;4.03;;;1.60;;
2406;SDS011;37709;53.480;9.688;2023-08-07T15:14:44;4.20;;;2.20;;
2406;SDS011;37709;53.480;9.688;2023-08-07T15:17:12;3.57;;;1.97;;
2406;SDS011;37709;53.480;9.688;2023-08-07T15:19:40;3.63;;;1.93;;